sensor_id;sensor_type;location;lat;lon;timestamp;pressure;altitude;pressure_sealevel;temperature;humidity
15260;BME280;34462;51.368;12.364;2023-07-30T00:00:24;20671.59;;;-141.84;89.47
15260;BME280;34462;51.368;12.364;2023-07-30T00:02:55;20669.56;;;-141.84;89.27
15260;BME280;34462;51.368;12.364;2023-07-30T00:05:24;20726.47;;;-141.84;88.68
15260;BME280;34462;51.368;12.364;2023-07-30T00:07:52;20718.34;;;-141.84;88.77
15260;BME280;34462;51.368;12.364;2023-07-30T00:10:46;20689.88;;;-141.84;89.52
15260;BME280;34462;51.368;12.364;2023-07-30T00:13:23;20704.13;;;-141.84;89.29
15260;BME280;34462;51.368;12.364;2023-07-30T00:15:56;20655.31;;;-141.84;89.46
15260;BME280;34462;51.368;12.364;2023-07-30T00:18:24;20651.25;;;-141.84;90.05
15260;BME280;34462;51.368;12.364;2023-07-30T00:20:53;20683.78;;;-141.84;89.96
15260;BME280;34462;51.368;12.364;2023-07-30T00:23:33;20671.59;;;-141.84;90.14
15260;BME280;34462;51.368;12.364;2023-07-30T00:26:01;20687.84;;;-141.84;90.21
15260;BME280;34462;51.368;12.364;2023-07-30T00:28:31;20752.91;;;-141.84;88.02
15260;BME280;34462;51.368;12.364;2023-07-30T00:31:00;20734.59;;;-141.84;88.03
15260;BME280;34462;51.368;12.364;2023-07-30T00:33:30;20695.97;;;-141.84;88.51
15260;BME280;34462;51.368;12.364;2023-07-30T00:35:59;20698.00;;;-141.84;88.65
15260;BME280;34462;51.368;12.364;2023-07-30T00:38:30;20700.03;;;-141.84;88.88
15260;BME280;34462;51.368;12.364;2023-07-30T00:40:58;20704.13;;;-141.84;89.13
15260;BME280;34462;51.368;12.364;2023-07-30T00:43:37;20687.84;;;-141.84;88.81
15260;BME280;34462;51.368;12.364;2023-07-30T00:46:06;20693.94;;;-141.84;88.59
15260;BME280;34462;51.368;12.364;2023-07-30T00:48:34;20702.09;;;-141.84;87.99
15260;BME280;34462;51.368;12.364;2023-07-30T00:51:03;20710.22;;;-141.84;87.63
15260;BME280;34462;51.368;12.364;2023-07-30T00:53:32;20712.25;;;-141.84;88.04
15260;BME280;34462;51.368;12.364;2023-07-30T00:56:01;20689.88;;;-141.84;87.69
15260;BME280;34462;51.368;12.364;2023-07-30T00:58:30;20700.03;;;-141.84;87.94
15260;BME280;34462;51.368;12.364;2023-07-30T01:01:01;20659.38;;;-141.84;88.68
15260;BME280;34462;51.368;12.364;2023-07-30T01:03:29;20657.34;;;-141.84;89.06
15260;BME280;34462;51.368;12.364;2023-07-30T01:05:58;20675.66;;;-141.84;89.13
15260;BME280;34462;51.368;12.364;2023-07-30T01:08:27;20651.25;;;-141.84;89.34
15260;BME280;34462;51.368;12.364;2023-07-30T01:10:56;20685.81;;;-141.84;89.85
15260;BME280;34462;51.368;12.364;2023-07-30T01:13:26;20622.81;;;-141.84;90.12
15260;BME280;34462;51.368;12.364;2023-07-30T01:15:55;20637.03;;;-141.84;90.14
15260;BME280;34462;51.368;12.364;2023-07-30T01:18:25;20655.31;;;-141.84;89.67
15260;BME280;34462;51.368;12.364;2023-07-30T01:20:58;20657.34;;;-141.84;88.70
15260;BME280;34462;51.368;12.364;2023-07-30T01:23:27;20663.47;;;-141.84;88.79
15260;BME280;34462;51.368;12.364;2023-07-30T01:26:01;20651.25;;;-141.84;88.51
15260;BME280;34462;51.368;12.364;2023-07-30T01:28:36;20639.06;;;-141.84;88.71
15260;BME280;34462;51.368;12.364;2023-07-30T01:31:07;20647.19;;;-141.84;88.45
15260;BME280;34462;51.368;12.364;2023-07-30T01:33:37;20649.22;;;-141.84;87.75
15260;BME280;34462;51.368;12.364;2023-07-30T01:36:10;20643.13;;;-141.84;88.11
15260;BME280;34462;51.368;12.364;2023-07-30T01:38:40;20667.53;;;-141.84;87.36
15260;BME280;34462;51.368;12.364;2023-07-30T01:41:09;20671.59;;;-141.84;87.33
15260;BME280;34462;51.368;12.364;2023-07-30T01:43:37;20653.28;;;-141.84;87.96
15260;BME280;34462;51.368;12.364;2023-07-30T01:46:06;20677.69;;;-141.84;88.09
15260;BME280;34462;51.368;12.364;2023-07-30T01:48:34;20720.38;;;-141.84;86.69
15260;BME280;34462;51.368;12.364;2023-07-30T01:51:03;20706.16;;;-141.84;85.94
15260;BME280;34462;51.368;12.364;2023-07-30T01:53:33;20671.59;;;-141.84;86.33
15260;BME280;34462;51.368;12.364;2023-07-30T01:56:01;20689.88;;;-141.84;86.31
15260;BME280;34462;51.368;12.364;2023-07-30T01:58:30;20691.91;;;-141.84;86.25
15260;BME280;34462;51.368;12.364;2023-07-30T02:00:58;20689.88;;;-141.84;86.59
15260;BME280;34462;51.368;12.364;2023-07-30T02:03:27;20714.28;;;-141.84;85.09
15260;BME280;34462;51.368;12.364;2023-07-30T02:05:55;20677.69;;;-141.84;85.36
15260;BME280;34462;51.368;12.364;2023-07-30T02:08:24;20622.81;;;-141.84;86.37
15260;BME280;34462;51.368;12.364;2023-07-30T02:10:58;20685.81;;;-141.84;86.65
15260;BME280;34462;51.368;12.364;2023-07-30T02:13:26;20698.00;;;-141.84;85.41
15260;BME280;34462;51.368;12.364;2023-07-30T02:15:55;20700.03;;;-141.84;85.06
15260;BME280;34462;51.368;12.364;2023-07-30T02:18:23;20700.03;;;-141.84;85.82
15260;BME280;34462;51.368;12.364;2023-07-30T02:20:52;20681.75;;;-141.84;84.99
15260;BME280;34462;51.368;12.364;2023-07-30T02:23:21;20720.38;;;-141.84;84.90
15260;BME280;34462;51.368;12.364;2023-07-30T02:25:49;20698.00;;;-141.84;84.88
15260;BME280;34462;51.368;12.364;2023-07-30T02:28:19;20695.97;;;-141.84;84.96
15260;BME280;34462;51.368;12.364;2023-07-30T02:30:48;20700.03;;;-141.84;85.04
15260;BME280;34462;51.368;12.364;2023-07-30T02:33:16;20728.50;;;-141.84;84.86
15260;BME280;34462;51.368;12.364;2023-07-30T02:35:45;20726.47;;;-141.84;84.35
15260;BME280;34462;51.368;12.364;2023-07-30T02:38:13;20708.19;;;-141.84;84.78
15260;BME280;34462;51.368;12.364;2023-07-30T02:40:42;20691.91;;;-141.84;85.36
15260;BME280;34462;51.368;12.364;2023-07-30T02:43:10;20724.44;;;-141.84;84.50
15260;BME280;34462;51.368;12.364;2023-07-30T02:45:40;20777.28;;;-141.84;83.19
15260;BME280;34462;51.368;12.364;2023-07-30T02:48:09;20750.88;;;-141.84;83.55
15260;BME280;34462;51.368;12.364;2023-07-30T02:50:37;20732.56;;;-141.84;84.15
15260;BME280;34462;51.368;12.364;2023-07-30T02:53:06;20722.41;;;-141.84;84.30
15260;BME280;34462;51.368;12.364;2023-07-30T02:55:34;20752.91;;;-141.84;84.24
15260;BME280;34462;51.368;12.364;2023-07-30T02:58:03;20754.94;;;-141.84;84.07
15260;BME280;34462;51.368;12.364;2023-07-30T03:00:31;20708.19;;;-141.84;84.10
15260;BME280;34462;51.368;12.364;2023-07-30T03:03:01;20748.84;;;-141.84;84.30
15260;BME280;34462;51.368;12.364;2023-07-30T03:05:29;20722.41;;;-141.84;83.84
15260;BME280;34462;51.368;12.364;2023-07-30T03:07:58;20748.84;;;-141.84;83.78
15260;BME280;34462;51.368;12.364;2023-07-30T03:10:26;20763.06;;;-141.84;83.92
15260;BME280;34462;51.368;12.364;2023-07-30T03:12:55;20740.69;;;-141.84;84.22
15260;BME280;34462;51.368;12.364;2023-07-30T03:15:23;20730.53;;;-141.84;84.54
15260;BME280;34462;51.368;12.364;2023-07-30T03:17:52;20726.47;;;-141.84;84.72
15260;BME280;34462;51.368;12.364;2023-07-30T03:20:22;20693.94;;;-141.84;85.11
15260;BME280;34462;51.368;12.364;2023-07-30T03:22:50;20748.84;;;-141.84;85.09
15260;BME280;34462;51.368;12.364;2023-07-30T03:25:19;20777.28;;;-141.84;84.76
15260;BME280;34462;51.368;12.364;2023-07-30T03:27:47;20746.81;;;-141.84;84.52
15260;BME280;34462;51.368;12.364;2023-07-30T03:30:16;20732.56;;;-141.84;85.11
15260;BME280;34462;51.368;12.364;2023-07-30T03:32:44;20746.81;;;-141.84;85.59
15260;BME280;34462;51.368;12.364;2023-07-30T03:35:13;20698.00;;;-141.84;85.48
15260;BME280;34462;51.368;12.364;2023-07-30T03:37:43;20748.84;;;-141.84;86.04
15260;BME280;34462;51.368;12.364;2023-07-30T03:40:12;20722.41;;;-141.84;86.23
15260;BME280;34462;51.368;12.364;2023-07-30T03:42:40;20724.44;;;-141.84;86.48
15260;BME280;34462;51.368;12.364;2023-07-30T03:45:09;20714.28;;;-141.84;86.51
15260;BME280;34462;51.368;12.364;2023-07-30T03:47:38;20708.19;;;-141.84;86.45
15260;BME280;34462;51.368;12.364;2023-07-30T03:50:07;20722.41;;;-141.84;86.32
15260;BME280;34462;51.368;12.364;2023-07-30T03:52:35;20720.38;;;-141.84;86.49
15260;BME280;34462;51.368;12.364;2023-07-30T03:55:08;20728.50;;;-141.84;86.32
15260;BME280;34462;51.368;12.364;2023-07-30T03:57:40;20718.34;;;-141.84;86.21
15260;BME280;34462;51.368;12.364;2023-07-30T04:00:09;20716.31;;;-141.84;86.53
15260;BME280;34462;51.368;12.364;2023-07-30T04:02:37;20724.44;;;-141.84;86.11
15260;BME280;34462;51.368;12.364;2023-07-30T04:05:35;20732.56;;;-141.84;85.79
15260;BME280;34462;51.368;12.364;2023-07-30T04:08:17;20748.84;;;-141.84;85.80
15260;BME280;34462;51.368;12.364;2023-07-30T04:11:15;20781.38;;;-141.84;85.51
15260;BME280;34462;51.368;12.364;2023-07-30T04:13:46;20761.03;;;-141.84;85.61
15260;BME280;34462;51.368;12.364;2023-07-30T04:16:23;20746.81;;;-141.84;85.77
15260;BME280;34462;51.368;12.364;2023-07-30T04:18:58;20761.03;;;-141.84;85.24
15260;BME280;34462;51.368;12.364;2023-07-30T04:21:26;20793.56;;;-141.84;85.16
15260;BME280;34462;51.368;12.364;2023-07-30T04:23:57;20767.13;;;-141.84;85.15
15260;BME280;34462;51.368;12.364;2023-07-30T04:26:28;20761.03;;;-141.84;85.12
15260;BME280;34462;51.368;12.364;2023-07-30T04:28:59;20832.19;;;-141.84;83.77
15260;BME280;34462;51.368;12.364;2023-07-30T04:31:27;20852.50;;;-141.84;83.60
15260;BME280;34462;51.368;12.364;2023-07-30T04:33:55;20842.34;;;-141.84;83.62
15260;BME280;34462;51.368;12.364;2023-07-30T04:36:26;20797.63;;;-141.84;84.03
15260;BME280;34462;51.368;12.364;2023-07-30T04:38:54;20803.72;;;-141.84;83.91
15260;BME280;34462;51.368;12.364;2023-07-30T04:41:22;20791.53;;;-141.84;83.89
15260;BME280;34462;51.368;12.364;2023-07-30T04:43:52;20824.06;;;-141.84;83.79
15260;BME280;34462;51.368;12.364;2023-07-30T04:46:21;20834.22;;;-141.84;83.86
15260;BME280;34462;51.368;12.364;2023-07-30T04:48:49;20838.28;;;-141.84;83.74
15260;BME280;34462;51.368;12.364;2023-07-30T04:51:18;20844.38;;;-141.84;83.55
15260;BME280;34462;51.368;12.364;2023-07-30T04:53:46;20866.75;;;-141.84;83.60
15260;BME280;34462;51.368;12.364;2023-07-30T04:56:14;20826.09;;;-141.84;83.36
15260;BME280;34462;51.368;12.364;2023-07-30T04:58:42;20885.03;;;-141.84;82.74
15260;BME280;34462;51.368;12.364;2023-07-30T05:01:12;20870.81;;;-141.84;81.87
15260;BME280;34462;51.368;12.364;2023-07-30T05:03:40;20915.53;;;-141.84;81.59
15260;BME280;34462;51.368;12.364;2023-07-30T05:06:08;20880.97;;;-141.84;80.94
15260;BME280;34462;51.368;12.364;2023-07-30T05:08:36;20925.69;;;-141.84;81.31
15260;BME280;34462;51.368;12.364;2023-07-30T05:11:04;20868.78;;;-141.84;81.75
15260;BME280;34462;51.368;12.364;2023-07-30T05:13:32;20834.22;;;-141.84;82.20
15260;BME280;34462;51.368;12.364;2023-07-30T05:16:01;20907.41;;;-141.84;81.89
15260;BME280;34462;51.368;12.364;2023-07-30T05:18:30;20948.06;;;-141.84;81.10
15260;BME280;34462;51.368;12.364;2023-07-30T05:20:58;21023.28;;;-141.84;78.09
15260;BME280;34462;51.368;12.364;2023-07-30T05:23:26;21051.75;;;-141.84;77.99
15260;BME280;34462;51.368;12.364;2023-07-30T05:25:55;21250.97;;;-141.84;75.37
15260;BME280;34462;51.368;12.364;2023-07-30T05:28:23;21318.06;;;-141.84;72.68
15260;BME280;34462;51.368;12.364;2023-07-30T05:30:52;21265.22;;;-141.84;72.32
15260;BME280;34462;51.368;12.364;2023-07-30T05:33:20;21261.16;;;-141.84;72.73
15260;BME280;34462;51.368;12.364;2023-07-30T05:35:49;21271.31;;;-141.84;72.52
15260;BME280;34462;51.368;12.364;2023-07-30T05:38:17;21328.25;;;-141.84;72.18
15260;BME280;34462;51.368;12.364;2023-07-30T05:40:46;21261.16;;;-141.84;72.96
15260;BME280;34462;51.368;12.364;2023-07-30T05:43:14;21269.28;;;-141.84;72.45
15260;BME280;34462;51.368;12.364;2023-07-30T05:45:43;21383.13;;;-141.84;71.48
15260;BME280;34462;51.368;12.364;2023-07-30T05:48:11;21381.09;;;-141.84;70.57
15260;BME280;34462;51.368;12.364;2023-07-30T05:50:40;21462.44;;;-141.84;69.94
15260;BME280;34462;51.368;12.364;2023-07-30T05:53:09;21492.94;;;-141.84;70.17
15260;BME280;34462;51.368;12.364;2023-07-30T05:55:37;21568.16;;;-141.84;69.08
15260;BME280;34462;51.368;12.364;2023-07-30T05:58:05;21560.03;;;-141.84;68.17
15260;BME280;34462;51.368;12.364;2023-07-30T06:00:34;21558.00;;;-141.84;68.52
15260;BME280;34462;51.368;12.364;2023-07-30T06:03:02;21584.44;;;-141.84;68.35
15260;BME280;34462;51.368;12.364;2023-07-30T06:05:31;21745.06;;;-141.84;66.38
15260;BME280;34462;51.368;12.364;2023-07-30T06:07:59;21795.88;;;-141.84;65.69
15260;BME280;34462;51.368;12.364;2023-07-30T06:10:37;21873.16;;;-141.84;64.01
15260;BME280;34462;51.368;12.364;2023-07-30T06:13:07;21761.31;;;-141.84;65.02
15260;BME280;34462;51.368;12.364;2023-07-30T06:15:35;21736.94;;;-141.84;65.56
15260;BME280;34462;51.368;12.364;2023-07-30T06:18:03;21684.06;;;-141.84;65.33
15260;BME280;34462;51.368;12.364;2023-07-30T06:20:32;21582.38;;;-141.84;66.96
15260;BME280;34462;51.368;12.364;2023-07-30T06:23:00;21578.31;;;-141.84;67.12
15260;BME280;34462;51.368;12.364;2023-07-30T06:25:28;21488.88;;;-141.84;68.83
15260;BME280;34462;51.368;12.364;2023-07-30T06:27:58;21494.97;;;-141.84;68.28
15260;BME280;34462;51.368;12.364;2023-07-30T06:30:26;21499.03;;;-141.84;68.38
15260;BME280;34462;51.368;12.364;2023-07-30T06:32:54;21456.34;;;-141.84;68.88
15260;BME280;34462;51.368;12.364;2023-07-30T06:35:23;21519.34;;;-141.84;69.02
15260;BME280;34462;51.368;12.364;2023-07-30T06:37:51;21621.03;;;-141.84;68.25
15260;BME280;34462;51.368;12.364;2023-07-30T06:40:19;21781.66;;;-141.84;65.53
15260;BME280;34462;51.368;12.364;2023-07-30T06:42:47;21865.03;;;-141.84;62.94
15260;BME280;34462;51.368;12.364;2023-07-30T06:45:17;21871.13;;;-141.84;63.61
15260;BME280;34462;51.368;12.364;2023-07-30T06:47:45;21791.81;;;-141.84;64.45
15260;BME280;34462;51.368;12.364;2023-07-30T06:50:13;21789.78;;;-141.84;63.63
15260;BME280;34462;51.368;12.364;2023-07-30T06:52:41;21826.41;;;-141.84;62.61
15260;BME280;34462;51.368;12.364;2023-07-30T06:55:10;21785.72;;;-141.84;63.03
15260;BME280;34462;51.368;12.364;2023-07-30T06:57:38;21814.19;;;-141.84;62.31
15260;BME280;34462;51.368;12.364;2023-07-30T07:00:08;21858.94;;;-141.84;62.09
15260;BME280;34462;51.368;12.364;2023-07-30T07:02:38;21795.88;;;-141.84;62.65
15260;BME280;34462;51.368;12.364;2023-07-30T07:05:06;21785.72;;;-141.84;63.20
15260;BME280;34462;51.368;12.364;2023-07-30T07:07:34;21808.09;;;-141.84;61.31
15260;BME280;34462;51.368;12.364;2023-07-30T07:10:03;21808.09;;;-141.84;61.80
15260;BME280;34462;51.368;12.364;2023-07-30T07:12:32;21830.47;;;-141.84;61.74
15260;BME280;34462;51.368;12.364;2023-07-30T07:15:00;21863.00;;;-141.84;60.91
15260;BME280;34462;51.368;12.364;2023-07-30T07:17:28;21877.22;;;-141.84;59.95
15260;BME280;34462;51.368;12.364;2023-07-30T07:19:58;21852.81;;;-141.84;60.23
15260;BME280;34462;51.368;12.364;2023-07-30T07:22:27;21838.59;;;-141.84;59.61
15260;BME280;34462;51.368;12.364;2023-07-30T07:24:55;21875.19;;;-141.84;58.52
15260;BME280;34462;51.368;12.364;2023-07-30T07:27:23;21869.09;;;-141.84;58.75
15260;BME280;34462;51.368;12.364;2023-07-30T07:29:52;21921.97;;;-141.84;57.72
15260;BME280;34462;51.368;12.364;2023-07-30T07:32:20;21822.31;;;-141.84;58.75
15260;BME280;34462;51.368;12.364;2023-07-30T07:34:49;21867.06;;;-141.84;58.32
15260;BME280;34462;51.368;12.364;2023-07-30T07:37:19;21944.34;;;-141.84;56.93
15260;BME280;34462;51.368;12.364;2023-07-30T07:39:47;21993.13;;;-141.84;57.03
15260;BME280;34462;51.368;12.364;2023-07-30T07:42:15;21972.81;;;-141.84;56.86
15260;BME280;34462;51.368;12.364;2023-07-30T07:44:43;22023.63;;;-141.84;56.66
15260;BME280;34462;51.368;12.364;2023-07-30T07:47:13;22121.25;;;-141.84;53.95
15260;BME280;34462;51.368;12.364;2023-07-30T07:49:41;22109.03;;;-141.84;54.12
15260;BME280;34462;51.368;12.364;2023-07-30T07:52:10;22245.28;;;-141.84;52.40
15260;BME280;34462;51.368;12.364;2023-07-30T07:54:40;22275.81;;;-141.84;51.63
15260;BME280;34462;51.368;12.364;2023-07-30T07:57:09;22353.09;;;-141.84;52.19
15260;BME280;34462;51.368;12.364;2023-07-30T07:59:37;22424.25;;;-141.84;51.32
15260;BME280;34462;51.368;12.364;2023-07-30T08:02:05;22397.81;;;-141.84;51.81
15260;BME280;34462;51.368;12.364;2023-07-30T08:04:34;22460.88;;;-141.84;50.64
15260;BME280;34462;51.368;12.364;2023-07-30T08:07:02;22428.31;;;-141.84;51.30
15260;BME280;34462;51.368;12.364;2023-07-30T08:09:31;22430.38;;;-141.84;51.42
15260;BME280;34462;51.368;12.364;2023-07-30T08:12:01;22556.47;;;-141.84;49.47
15260;BME280;34462;51.368;12.364;2023-07-30T08:14:30;22542.22;;;-141.84;49.72
15260;BME280;34462;51.368;12.364;2023-07-30T08:16:58;22576.78;;;-141.84;50.38
15260;BME280;34462;51.368;12.364;2023-07-30T08:19:26;22554.41;;;-141.84;50.43
15260;BME280;34462;51.368;12.364;2023-07-30T08:21:54;22586.97;;;-141.84;50.28
15260;BME280;34462;51.368;12.364;2023-07-30T08:24:23;22548.31;;;-141.84;50.47
15260;BME280;34462;51.368;12.364;2023-07-30T08:26:51;22591.03;;;-141.84;50.90
15260;BME280;34462;51.368;12.364;2023-07-30T08:29:21;22523.91;;;-141.84;52.04
15260;BME280;34462;51.368;12.364;2023-07-30T08:31:49;22414.09;;;-141.84;53.44
15260;BME280;34462;51.368;12.364;2023-07-30T08:34:18;22397.81;;;-141.84;52.96
15260;BME280;34462;51.368;12.364;2023-07-30T08:36:46;22332.75;;;-141.84;53.56
15260;BME280;34462;51.368;12.364;2023-07-30T08:39:14;22399.84;;;-141.84;52.64
15260;BME280;34462;51.368;12.364;2023-07-30T08:41:42;22302.25;;;-141.84;53.04
15260;BME280;34462;51.368;12.364;2023-07-30T08:44:11;22314.44;;;-141.84;52.50
15260;BME280;34462;51.368;12.364;2023-07-30T08:46:41;22324.59;;;-141.84;51.58
15260;BME280;34462;51.368;12.364;2023-07-30T08:49:09;22267.66;;;-141.84;51.80
15260;BME280;34462;51.368;12.364;2023-07-30T08:51:39;22168.03;;;-141.84;53.43
15260;BME280;34462;51.368;12.364;2023-07-30T08:54:12;22131.41;;;-141.84;54.27
15260;BME280;34462;51.368;12.364;2023-07-30T08:56:42;22025.66;;;-141.84;55.52
15260;BME280;34462;51.368;12.364;2023-07-30T08:59:11;22074.47;;;-141.84;54.58
15260;BME280;34462;51.368;12.364;2023-07-30T09:01:44;22068.38;;;-141.84;55.21
15260;BME280;34462;51.368;12.364;2023-07-30T09:04:17;22127.34;;;-141.84;54.00
15260;BME280;34462;51.368;12.364;2023-07-30T09:06:48;22172.09;;;-141.84;52.37
15260;BME280;34462;51.368;12.364;2023-07-30T09:09:19;22188.34;;;-141.84;50.47
15260;BME280;34462;51.368;12.364;2023-07-30T09:11:51;22184.28;;;-141.84;51.94
15260;BME280;34462;51.368;12.364;2023-07-30T09:14:20;22137.50;;;-141.84;52.66
15260;BME280;34462;51.368;12.364;2023-07-30T09:16:56;22141.59;;;-141.84;52.58
15260;BME280;34462;51.368;12.364;2023-07-30T09:19:25;22180.22;;;-141.84;52.89
15260;BME280;34462;51.368;12.364;2023-07-30T09:21:53;22229.03;;;-141.84;52.16
15260;BME280;34462;51.368;12.364;2023-07-30T09:24:22;22285.97;;;-141.84;52.32
15260;BME280;34462;51.368;12.364;2023-07-30T09:26:50;22233.09;;;-141.84;52.33
15260;BME280;34462;51.368;12.364;2023-07-30T09:29:18;22229.03;;;-141.84;53.34
15260;BME280;34462;51.368;12.364;2023-07-30T09:31:48;22157.84;;;-141.84;54.07
15260;BME280;34462;51.368;12.364;2023-07-30T09:34:19;22190.38;;;-141.84;53.86
15260;BME280;34462;51.368;12.364;2023-07-30T09:36:49;22237.16;;;-141.84;53.29
15260;BME280;34462;51.368;12.364;2023-07-30T09:39:21;22253.44;;;-141.84;51.21
15260;BME280;34462;51.368;12.364;2023-07-30T09:41:52;22263.59;;;-141.84;51.52
15260;BME280;34462;51.368;12.364;2023-07-30T09:44:21;22290.03;;;-141.84;50.34
15260;BME280;34462;51.368;12.364;2023-07-30T09:46:50;22365.28;;;-141.84;49.20
15260;BME280;34462;51.368;12.364;2023-07-30T09:49:19;22381.56;;;-141.84;46.55
15260;BME280;34462;51.368;12.364;2023-07-30T09:51:51;22403.94;;;-141.84;46.38
15260;BME280;34462;51.368;12.364;2023-07-30T09:54:20;22363.25;;;-141.84;46.97
15260;BME280;34462;51.368;12.364;2023-07-30T09:56:49;22367.31;;;-141.84;46.64
15260;BME280;34462;51.368;12.364;2023-07-30T09:59:17;22373.41;;;-141.84;47.66
15260;BME280;34462;51.368;12.364;2023-07-30T10:01:48;22408.00;;;-141.84;46.96
15260;BME280;34462;51.368;12.364;2023-07-30T10:04:20;22438.50;;;-141.84;46.53
15260;BME280;34462;51.368;12.364;2023-07-30T10:06:54;22456.81;;;-141.84;46.38
15260;BME280;34462;51.368;12.364;2023-07-30T10:09:28;22477.13;;;-141.84;46.85
15260;BME280;34462;51.368;12.364;2023-07-30T10:12:00;22501.53;;;-141.84;47.73
15260;BME280;34462;51.368;12.364;2023-07-30T10:14:30;22513.75;;;-141.84;48.00
15260;BME280;34462;51.368;12.364;2023-07-30T10:17:00;22576.78;;;-141.84;47.36
15260;BME280;34462;51.368;12.364;2023-07-30T10:19:30;22568.66;;;-141.84;48.03
15260;BME280;34462;51.368;12.364;2023-07-30T10:22:19;22627.63;;;-141.84;48.24
15260;BME280;34462;51.368;12.364;2023-07-30T10:24:57;22613.41;;;-141.84;47.31
15260;BME280;34462;51.368;12.364;2023-07-30T10:27:27;22637.81;;;-141.84;47.09
15260;BME280;34462;51.368;12.364;2023-07-30T10:30:11;22686.63;;;-141.84;46.82
15260;BME280;34462;51.368;12.364;2023-07-30T10:32:41;22664.25;;;-141.84;46.80
15260;BME280;34462;51.368;12.364;2023-07-30T10:35:39;22578.81;;;-141.84;47.20
15260;BME280;34462;51.368;12.364;2023-07-30T10:38:19;22733.41;;;-141.84;47.24
15260;BME280;34462;51.368;12.364;2023-07-30T10:41:04;22767.97;;;-141.84;45.55
15260;BME280;34462;51.368;12.364;2023-07-30T10:43:35;22721.19;;;-141.84;45.50
15260;BME280;34462;51.368;12.364;2023-07-30T10:46:05;22688.66;;;-141.84;46.22
15260;BME280;34462;51.368;12.364;2023-07-30T10:48:35;22806.63;;;-141.84;45.71
15260;BME280;34462;51.368;12.364;2023-07-30T10:51:08;22810.69;;;-141.84;45.10
15260;BME280;34462;51.368;12.364;2023-07-30T10:53:36;22843.22;;;-141.84;45.57
15260;BME280;34462;51.368;12.364;2023-07-30T10:56:06;22790.34;;;-141.84;45.26
15260;BME280;34462;51.368;12.364;2023-07-30T10:58:36;22912.38;;;-141.84;45.30
15260;BME280;34462;51.368;12.364;2023-07-30T11:01:06;23032.38;;;-141.84;43.64
15260;BME280;34462;51.368;12.364;2023-07-30T11:03:36;23095.44;;;-141.84;43.21
15260;BME280;34462;51.368;12.364;2023-07-30T11:06:06;23136.13;;;-141.84;43.64
15260;BME280;34462;51.368;12.364;2023-07-30T11:08:38;23103.59;;;-141.84;43.61
15260;BME280;34462;51.368;12.364;2023-07-30T11:11:09;23101.53;;;-141.84;43.16
15260;BME280;34462;51.368;12.364;2023-07-30T11:13:39;23101.53;;;-141.84;42.73
15260;BME280;34462;51.368;12.364;2023-07-30T11:16:09;23034.44;;;-141.84;43.85
15260;BME280;34462;51.368;12.364;2023-07-30T11:18:39;22959.16;;;-141.84;44.16
15260;BME280;34462;51.368;12.364;2023-07-30T11:21:10;23012.06;;;-141.84;43.72
15260;BME280;34462;51.368;12.364;2023-07-30T11:23:42;23040.53;;;-141.84;43.82
15260;BME280;34462;51.368;12.364;2023-07-30T11:26:15;23099.50;;;-141.84;43.37
15260;BME280;34462;51.368;12.364;2023-07-30T11:28:44;23109.69;;;-141.84;42.93
15260;BME280;34462;51.368;12.364;2023-07-30T11:31:15;23158.50;;;-141.84;42.27
15260;BME280;34462;51.368;12.364;2023-07-30T11:33:46;23136.13;;;-141.84;43.17
15260;BME280;34462;51.368;12.364;2023-07-30T11:36:19;23105.63;;;-141.84;43.17
15260;BME280;34462;51.368;12.364;2023-07-30T11:38:48;23083.25;;;-141.84;43.70
15260;BME280;34462;51.368;12.364;2023-07-30T11:41:17;23111.72;;;-141.84;44.13
15260;BME280;34462;51.368;12.364;2023-07-30T11:43:46;23162.56;;;-141.84;42.67
15260;BME280;34462;51.368;12.364;2023-07-30T11:46:16;23152.41;;;-141.84;42.30
15260;BME280;34462;51.368;12.364;2023-07-30T11:48:47;23195.13;;;-141.84;42.78
15260;BME280;34462;51.368;12.364;2023-07-30T11:51:23;23252.06;;;-141.84;42.85
15260;BME280;34462;51.368;12.364;2023-07-30T11:53:54;23266.31;;;-141.84;42.12
15260;BME280;34462;51.368;12.364;2023-07-30T11:56:24;23347.69;;;-141.84;41.93
15260;BME280;34462;51.368;12.364;2023-07-30T11:58:58;23465.66;;;-141.84;40.67
15260;BME280;34462;51.368;12.364;2023-07-30T12:01:29;23660.97;;;-141.84;40.74
15260;BME280;34462;51.368;12.364;2023-07-30T12:03:59;23742.34;;;-141.84;39.18
15260;BME280;34462;51.368;12.364;2023-07-30T12:06:41;23638.59;;;-141.84;40.29
15260;BME280;34462;51.368;12.364;2023-07-30T12:09:13;23648.75;;;-141.84;40.21
15260;BME280;34462;51.368;12.364;2023-07-30T12:11:48;23561.28;;;-141.84;40.09
15260;BME280;34462;51.368;12.364;2023-07-30T12:14:17;23585.69;;;-141.84;40.48
15260;BME280;34462;51.368;12.364;2023-07-30T12:16:46;23654.84;;;-141.84;40.03
15260;BME280;34462;51.368;12.364;2023-07-30T12:19:14;23766.75;;;-141.84;39.62
15260;BME280;34462;51.368;12.364;2023-07-30T12:21:43;23726.06;;;-141.84;40.17
15260;BME280;34462;51.368;12.364;2023-07-30T12:24:12;23685.38;;;-141.84;39.45
15260;BME280;34462;51.368;12.364;2023-07-30T12:26:41;23679.28;;;-141.84;39.00
15260;BME280;34462;51.368;12.364;2023-07-30T12:29:09;23681.31;;;-141.84;40.04
15260;BME280;34462;51.368;12.364;2023-07-30T12:31:37;23644.69;;;-141.84;39.79
15260;BME280;34462;51.368;12.364;2023-07-30T12:34:05;23585.69;;;-141.84;39.97
15260;BME280;34462;51.368;12.364;2023-07-30T12:36:33;23524.66;;;-141.84;40.63
15260;BME280;34462;51.368;12.364;2023-07-30T12:39:03;23422.94;;;-141.84;40.79
15260;BME280;34462;51.368;12.364;2023-07-30T12:41:32;23357.84;;;-141.84;41.43
15260;BME280;34462;51.368;12.364;2023-07-30T12:44:00;23266.31;;;-141.84;42.06